sensor_id;sensor_type;location;lat;lon;timestamp;temperature;humidity
67005;HTU21D;53920;51.094;5.902;2022-12-18T00:02:03;-4.90;75.63
67005;HTU21D;53920;51.094;5.902;2022-12-18T00:04:29;-4.89;75.56
67005;HTU21D;53920;51.094;5.902;2022-12-18T00:06:55;-4.86;75.56
67005;HTU21D;53920;51.094;5.902;2022-12-18T00:09:22;-4.90;75.60
67005;HTU21D;53920;51.094;5.902;2022-12-18T00:11:52;-4.85;75.66
67005;HTU21D;53920;51.094;5.902;2022-12-18T00:14:18;-4.81;75.68
67005;HTU21D;53920;51.094;5.902;2022-12-18T00:16:45;-4.80;75.54
67005;HTU21D;53920;51.094;5.902;2022-12-18T00:19:17;-4.79;75.54
67005;HTU21D;53920;51.094;5.902;2022-12-18T00:21:43;-4.80;75.50
67005;HTU21D;53920;51.094;5.902;2022-12-18T00:24:10;-4.81;75.34
67005;HTU21D;53920;51.094;5.902;2022-12-18T00:26:42;-4.84;75.24
67005;HTU21D;53920;51.094;5.902;2022-12-18T00:29:13;-4.88;75.02
67005;HTU21D;53920;51.094;5.902;2022-12-18T00:31:40;-4.93;74.95
67005;HTU21D;53920;51.094;5.902;2022-12-18T00:34:10;-4.98;75.09
67005;HTU21D;53920;51.094;5.902;2022-12-18T00:36:40;-5.00;75.23
67005;HTU21D;53920;51.094;5.902;2022-12-18T00:39:07;-5.02;75.19
67005;HTU21D;53920;51.094;5.902;2022-12-18T00:41:36;-5.02;75.27
67005;HTU21D;53920;51.094;5.902;2022-12-18T00:44:20;-5.01;75.18
67005;HTU21D;53920;51.094;5.902;2022-12-18T00:46:50;-5.04;75.10
67005;HTU21D;53920;51.094;5.902;2022-12-18T00:49:18;-5.08;74.91
67005;HTU21D;53920;51.094;5.902;2022-12-18T00:51:44;-5.13;75.02
67005;HTU21D;53920;51.094;5.902;2022-12-18T00:54:10;-5.12;75.31
67005;HTU21D;53920;51.094;5.902;2022-12-18T00:56:38;-5.04;75.31
67005;HTU21D;53920;51.094;5.902;2022-12-18T00:59:04;-5.02;75.30
67005;HTU21D;53920;51.094;5.902;2022-12-18T01:01:31;-5.00;75.28
67005;HTU21D;53920;51.094;5.902;2022-12-18T01:04:00;-5.01;75.13
67005;HTU21D;53920;51.094;5.902;2022-12-18T01:06:27;-5.03;75.26
67005;HTU21D;53920;51.094;5.902;2022-12-18T01:08:53;-5.04;75.20
67005;HTU21D;53920;51.094;5.902;2022-12-18T01:11:23;-5.08;75.39
67005;HTU21D;53920;51.094;5.902;2022-12-18T01:13:49;-5.08;75.31
67005;HTU21D;53920;51.094;5.902;2022-12-18T01:16:16;-5.11;75.48
67005;HTU21D;53920;51.094;5.902;2022-12-18T01:18:43;-5.07;75.31
67005;HTU21D;53920;51.094;5.902;2022-12-18T01:21:15;-5.09;75.32
67005;HTU21D;53920;51.094;5.902;2022-12-18T01:23:41;-5.10;75.34
67005;HTU21D;53920;51.094;5.902;2022-12-18T01:26:11;-5.11;75.47
67005;HTU21D;53920;51.094;5.902;2022-12-18T01:28:38;-5.08;75.41
67005;HTU21D;53920;51.094;5.902;2022-12-18T01:31:18;-5.05;75.28
67005;HTU21D;53920;51.094;5.902;2022-12-18T01:33:46;-5.11;75.18
67005;HTU21D;53920;51.094;5.902;2022-12-18T01:36:17;-5.09;75.12
67005;HTU21D;53920;51.094;5.902;2022-12-18T01:38:45;-5.12;75.13
67005;HTU21D;53920;51.094;5.902;2022-12-18T01:41:13;-5.11;74.97
67005;HTU21D;53920;51.094;5.902;2022-12-18T01:43:53;-5.09;74.89
67005;HTU21D;53920;51.094;5.902;2022-12-18T01:46:26;-5.09;74.86
67005;HTU21D;53920;51.094;5.902;2022-12-18T01:48:59;-5.12;74.68
67005;HTU21D;53920;51.094;5.902;2022-12-18T01:51:29;-5.18;74.70
67005;HTU21D;53920;51.094;5.902;2022-12-18T01:53:57;-5.20;74.69
67005;HTU21D;53920;51.094;5.902;2022-12-18T01:56:25;-5.22;74.54
67005;HTU21D;53920;51.094;5.902;2022-12-18T01:59:04;-5.25;74.60
67005;HTU21D;53920;51.094;5.902;2022-12-18T02:01:32;-5.28;74.51
67005;HTU21D;53920;51.094;5.902;2022-12-18T02:04:30;-5.30;74.62
67005;HTU21D;53920;51.094;5.902;2022-12-18T02:10:35;-5.31;74.46
67005;HTU21D;53920;51.094;5.902;2022-12-18T02:18:47;-5.33;74.48
67005;HTU21D;53920;51.094;5.902;2022-12-18T02:21:39;-5.37;74.78
67005;HTU21D;53920;51.094;5.902;2022-12-18T02:27:02;-5.34;75.08
67005;HTU21D;53920;51.094;5.902;2022-12-18T02:29:46;-5.34;75.03
67005;HTU21D;53920;51.094;5.902;2022-12-18T02:32:27;-5.33;74.89
67005;HTU21D;53920;51.094;5.902;2022-12-18T02:34:56;-5.37;74.87
67005;HTU21D;53920;51.094;5.902;2022-12-18T02:37:27;-5.31;74.77
67005;HTU21D;53920;51.094;5.902;2022-12-18T02:39:56;-5.39;74.98
67005;HTU21D;53920;51.094;5.902;2022-12-18T02:42:24;-5.35;74.90
67005;HTU21D;53920;51.094;5.902;2022-12-18T02:44:51;-5.37;74.88
67005;HTU21D;53920;51.094;5.902;2022-12-18T02:47:29;-5.40;74.83
67005;HTU21D;53920;51.094;5.902;2022-12-18T02:58:14;-5.30;74.86
67005;HTU21D;53920;51.094;5.902;2022-12-18T03:01:33;-5.30;74.81
67005;HTU21D;53920;51.094;5.902;2022-12-18T03:04:13;-5.26;74.78
67005;HTU21D;53920;51.094;5.902;2022-12-18T03:06:47;-5.20;74.82
67005;HTU21D;53920;51.094;5.902;2022-12-18T03:09:21;-5.22;74.73
67005;HTU21D;53920;51.094;5.902;2022-12-18T03:11:59;-5.19;74.83
67005;HTU21D;53920;51.094;5.902;2022-12-18T03:14:47;-5.18;74.83
67005;HTU21D;53920;51.094;5.902;2022-12-18T03:17:22;-5.14;74.79
67005;HTU21D;53920;51.094;5.902;2022-12-18T03:19:54;-5.15;74.85
67005;HTU21D;53920;51.094;5.902;2022-12-18T03:22:24;-5.15;74.84
67005;HTU21D;53920;51.094;5.902;2022-12-18T03:24:56;-5.10;74.76
67005;HTU21D;53920;51.094;5.902;2022-12-18T03:27:25;-5.11;74.64
67005;HTU21D;53920;51.094;5.902;2022-12-18T03:30:03;-5.12;74.59
67005;HTU21D;53920;51.094;5.902;2022-12-18T03:32:44;-5.13;74.52
67005;HTU21D;53920;51.094;5.902;2022-12-18T03:35:21;-5.11;74.58
67005;HTU21D;53920;51.094;5.902;2022-12-18T03:37:49;-5.07;74.48
67005;HTU21D;53920;51.094;5.902;2022-12-18T03:40:15;-5.07;74.35
67005;HTU21D;53920;51.094;5.902;2022-12-18T03:46:03;-5.07;74.29
67005;HTU21D;53920;51.094;5.902;2022-12-18T03:48:41;-5.13;74.44
67005;HTU21D;53920;51.094;5.902;2022-12-18T03:51:28;-5.16;74.49
67005;HTU21D;53920;51.094;5.902;2022-12-18T03:54:02;-5.16;74.46
67005;HTU21D;53920;51.094;5.902;2022-12-18T03:56:45;-5.22;74.47
67005;HTU21D;53920;51.094;5.902;2022-12-18T03:59:17;-5.26;74.54
67005;HTU21D;53920;51.094;5.902;2022-12-18T04:01:51;-5.26;74.49
67005;HTU21D;53920;51.094;5.902;2022-12-18T04:04:21;-5.32;74.45
67005;HTU21D;53920;51.094;5.902;2022-12-18T04:06:49;-5.35;74.41
67005;HTU21D;53920;51.094;5.902;2022-12-18T04:09:19;-5.37;74.34
67005;HTU21D;53920;51.094;5.902;2022-12-18T04:11:47;-5.39;74.41
67005;HTU21D;53920;51.094;5.902;2022-12-18T04:14:15;-5.41;74.59
67005;HTU21D;53920;51.094;5.902;2022-12-18T04:16:41;-5.41;74.59
67005;HTU21D;53920;51.094;5.902;2022-12-18T04:19:13;-5.35;74.36
67005;HTU21D;53920;51.094;5.902;2022-12-18T04:21:42;-5.43;74.68
67005;HTU21D;53920;51.094;5.902;2022-12-18T04:24:10;-5.43;74.78
67005;HTU21D;53920;51.094;5.902;2022-12-18T04:26:40;-5.43;74.80
67005;HTU21D;53920;51.094;5.902;2022-12-18T04:29:17;-5.44;74.83
67005;HTU21D;53920;51.094;5.902;2022-12-18T04:31:43;-5.43;74.94
67005;HTU21D;53920;51.094;5.902;2022-12-18T04:34:16;-5.44;74.83
67005;HTU21D;53920;51.094;5.902;2022-12-18T04:36:48;-5.48;74.89
67005;HTU21D;53920;51.094;5.902;2022-12-18T04:39:14;-5.53;74.87
67005;HTU21D;53920;51.094;5.902;2022-12-18T04:41:43;-5.55;74.91
67005;HTU21D;53920;51.094;5.902;2022-12-18T04:44:11;-5.57;75.01
67005;HTU21D;53920;51.094;5.902;2022-12-18T04:46:37;-5.58;75.13
67005;HTU21D;53920;51.094;5.902;2022-12-18T04:49:03;-5.59;75.06
67005;HTU21D;53920;51.094;5.902;2022-12-18T04:51:29;-5.62;75.14
67005;HTU21D;53920;51.094;5.902;2022-12-18T04:53:55;-5.63;75.25
67005;HTU21D;53920;51.094;5.902;2022-12-18T04:56:21;-5.65;75.29
67005;HTU21D;53920;51.094;5.902;2022-12-18T04:58:49;-5.62;75.41
67005;HTU21D;53920;51.094;5.902;2022-12-18T05:01:16;-5.58;75.50
67005;HTU21D;53920;51.094;5.902;2022-12-18T05:03:43;-5.54;75.52
67005;HTU21D;53920;51.094;5.902;2022-12-18T05:06:09;-5.49;75.50
67005;HTU21D;53920;51.094;5.902;2022-12-18T05:08:35;-5.46;75.40
67005;HTU21D;53920;51.094;5.902;2022-12-18T05:11:10;-5.46;75.47
67005;HTU21D;53920;51.094;5.902;2022-12-18T05:13:37;-5.43;75.44
67005;HTU21D;53920;51.094;5.902;2022-12-18T05:16:04;-5.43;75.39
67005;HTU21D;53920;51.094;5.902;2022-12-18T05:18:30;-5.42;75.30
67005;HTU21D;53920;51.094;5.902;2022-12-18T05:20:56;-5.43;75.20
67005;HTU21D;53920;51.094;5.902;2022-12-18T05:23:24;-5.44;75.14
67005;HTU21D;53920;51.094;5.902;2022-12-18T05:25:58;-5.43;75.02
67005;HTU21D;53920;51.094;5.902;2022-12-18T05:28:28;-5.42;75.05
67005;HTU21D;53920;51.094;5.902;2022-12-18T05:30:57;-5.34;74.96
67005;HTU21D;53920;51.094;5.902;2022-12-18T05:33:29;-5.34;74.93
67005;HTU21D;53920;51.094;5.902;2022-12-18T05:35:58;-5.34;74.79
67005;HTU21D;53920;51.094;5.902;2022-12-18T05:38:26;-5.35;74.96
67005;HTU21D;53920;51.094;5.902;2022-12-18T05:40:53;-5.37;74.96
67005;HTU21D;53920;51.094;5.902;2022-12-18T05:43:20;-5.37;74.99
67005;HTU21D;53920;51.094;5.902;2022-12-18T05:45:50;-5.35;74.99
67005;HTU21D;53920;51.094;5.902;2022-12-18T05:48:17;-5.34;74.99
67005;HTU21D;53920;51.094;5.902;2022-12-18T05:50:46;-5.37;74.99
67005;HTU21D;53920;51.094;5.902;2022-12-18T05:53:14;-5.37;74.96
67005;HTU21D;53920;51.094;5.902;2022-12-18T05:55:42;-5.37;74.94
67005;HTU21D;53920;51.094;5.902;2022-12-18T05:58:10;-5.39;74.89
67005;HTU21D;53920;51.094;5.902;2022-12-18T06:00:40;-5.40;74.85
67005;HTU21D;53920;51.094;5.902;2022-12-18T06:03:08;-5.39;74.93
67005;HTU21D;53920;51.094;5.902;2022-12-18T06:05:40;-5.40;74.98
67005;HTU21D;53920;51.094;5.902;2022-12-18T06:08:07;-5.40;75.01
67005;HTU21D;53920;51.094;5.902;2022-12-18T06:10:37;-5.40;74.90
67005;HTU21D;53920;51.094;5.902;2022-12-18T06:13:03;-5.39;74.93
67005;HTU21D;53920;51.094;5.902;2022-12-18T06:15:30;-5.37;74.97
67005;HTU21D;53920;51.094;5.902;2022-12-18T06:17:57;-5.35;74.93
67005;HTU21D;53920;51.094;5.902;2022-12-18T06:20:23;-5.31;74.70
67005;HTU21D;53920;51.094;5.902;2022-12-18T06:22:49;-5.35;74.98
67005;HTU21D;53920;51.094;5.902;2022-12-18T06:25:15;-5.37;74.89
67005;HTU21D;53920;51.094;5.902;2022-12-18T06:27:41;-5.38;75.03
67005;HTU21D;53920;51.094;5.902;2022-12-18T06:30:08;-5.39;75.04
67005;HTU21D;53920;51.094;5.902;2022-12-18T06:32:34;-5.39;75.01
67005;HTU21D;53920;51.094;5.902;2022-12-18T06:35:00;-5.39;75.24
67005;HTU21D;53920;51.094;5.902;2022-12-18T06:37:26;-5.33;75.30
67005;HTU21D;53920;51.094;5.902;2022-12-18T06:39:53;-5.26;75.20
67005;HTU21D;53920;51.094;5.902;2022-12-18T06:42:19;-5.22;75.25
67005;HTU21D;53920;51.094;5.902;2022-12-18T06:44:49;-5.19;75.30
67005;HTU21D;53920;51.094;5.902;2022-12-18T06:47:18;-5.14;75.34
67005;HTU21D;53920;51.094;5.902;2022-12-18T06:49:44;-5.13;75.23
67005;HTU21D;53920;51.094;5.902;2022-12-18T06:52:10;-5.09;75.05
67005;HTU21D;53920;51.094;5.902;2022-12-18T06:54:36;-5.12;75.17
67005;HTU21D;53920;51.094;5.902;2022-12-18T06:57:02;-5.13;75.16
67005;HTU21D;53920;51.094;5.902;2022-12-18T06:59:28;-5.10;75.02
67005;HTU21D;53920;51.094;5.902;2022-12-18T07:01:54;-5.12;75.09
67005;HTU21D;53920;51.094;5.902;2022-12-18T07:04:20;-5.11;74.99
67005;HTU21D;53920;51.094;5.902;2022-12-18T07:06:46;-5.11;75.00
67005;HTU21D;53920;51.094;5.902;2022-12-18T07:09:12;-5.13;75.16
67005;HTU21D;53920;51.094;5.902;2022-12-18T07:11:38;-5.09;75.15
67005;HTU21D;53920;51.094;5.902;2022-12-18T07:14:04;-5.04;75.03
67005;HTU21D;53920;51.094;5.902;2022-12-18T07:16:30;-4.99;74.92
67005;HTU21D;53920;51.094;5.902;2022-12-18T07:18:56;-5.01;74.91
67005;HTU21D;53920;51.094;5.902;2022-12-18T07:21:24;-4.99;74.82
67005;HTU21D;53920;51.094;5.902;2022-12-18T07:23:51;-4.98;74.66
67005;HTU21D;53920;51.094;5.902;2022-12-18T07:26:19;-4.97;74.60
67005;HTU21D;53920;51.094;5.902;2022-12-18T07:28:47;-4.98;74.55
67005;HTU21D;53920;51.094;5.902;2022-12-18T07:31:20;-5.00;74.64
67005;HTU21D;53920;51.094;5.902;2022-12-18T07:33:48;-4.98;74.47
67005;HTU21D;53920;51.094;5.902;2022-12-18T07:36:15;-5.01;74.69
67005;HTU21D;53920;51.094;5.902;2022-12-18T07:38:41;-4.97;74.68
67005;HTU21D;53920;51.094;5.902;2022-12-18T07:41:11;-5.01;74.70
67005;HTU21D;53920;51.094;5.902;2022-12-18T07:43:37;-4.94;74.66
67005;HTU21D;53920;51.094;5.902;2022-12-18T07:46:04;-4.90;74.64
67005;HTU21D;53920;51.094;5.902;2022-12-18T07:48:30;-4.80;74.44
67005;HTU21D;53920;51.094;5.902;2022-12-18T07:51:01;-4.75;74.34
67005;HTU21D;53920;51.094;5.902;2022-12-18T07:53:27;-4.72;74.30
67005;HTU21D;53920;51.094;5.902;2022-12-18T07:56:02;-4.60;74.07
67005;HTU21D;53920;51.094;5.902;2022-12-18T07:58:32;-4.57;74.04
67005;HTU21D;53920;51.094;5.902;2022-12-18T08:01:09;-4.43;73.83
67005;HTU21D;53920;51.094;5.902;2022-12-18T08:03:36;-4.32;73.38
67005;HTU21D;53920;51.094;5.902;2022-12-18T08:06:04;-4.28;73.43
67005;HTU21D;53920;51.094;5.902;2022-12-18T08:08:33;-4.25;73.50
67005;HTU21D;53920;51.094;5.902;2022-12-18T08:11:00;-4.16;73.23
67005;HTU21D;53920;51.094;5.902;2022-12-18T08:13:28;-4.08;72.93
67005;HTU21D;53920;51.094;5.902;2022-12-18T08:16:04;-4.05;72.94
67005;HTU21D;53920;51.094;5.902;2022-12-18T08:18:32;-3.97;72.97
67005;HTU21D;53920;51.094;5.902;2022-12-18T08:21:08;-3.86;72.52
67005;HTU21D;53920;51.094;5.902;2022-12-18T08:23:35;-3.80;72.43
67005;HTU21D;53920;51.094;5.902;2022-12-18T08:26:01;-3.70;72.35
67005;HTU21D;53920;51.094;5.902;2022-12-18T08:28:27;-3.66;71.87
67005;HTU21D;53920;51.094;5.902;2022-12-18T08:30:53;-3.56;71.72
67005;HTU21D;53920;51.094;5.902;2022-12-18T08:33:19;-3.45;71.58
67005;HTU21D;53920;51.094;5.902;2022-12-18T08:35:45;-3.36;71.37
67005;HTU21D;53920;51.094;5.902;2022-12-18T08:38:11;-3.25;71.08
67005;HTU21D;53920;51.094;5.902;2022-12-18T08:40:37;-3.06;70.58
67005;HTU21D;53920;51.094;5.902;2022-12-18T08:43:03;-2.98;70.48
67005;HTU21D;53920;51.094;5.902;2022-12-18T08:45:47;-2.83;70.22
67005;HTU21D;53920;51.094;5.902;2022-12-18T08:48:13;-2.77;69.95
67005;HTU21D;53920;51.094;5.902;2022-12-18T08:50:40;-2.67;69.84
67005;HTU21D;53920;51.094;5.902;2022-12-18T08:53:06;-2.68;69.88
67005;HTU21D;53920;51.094;5.902;2022-12-18T08:55:32;-2.64;69.76
67005;HTU21D;53920;51.094;5.902;2022-12-18T08:57:58;-2.56;69.52
67005;HTU21D;53920;51.094;5.902;2022-12-18T09:00:24;-2.45;69.08
67005;HTU21D;53920;51.094;5.902;2022-12-18T09:02:50;-2.31;68.79
67005;HTU21D;53920;51.094;5.902;2022-12-18T09:05:16;-2.24;68.65
67005;HTU21D;53920;51.094;5.902;2022-12-18T09:07:42;-2.09;68.39
67005;HTU21D;53920;51.094;5.902;2022-12-18T09:10:08;-1.88;67.96
67005;HTU21D;53920;51.094;5.902;2022-12-18T09:12:34;-1.82;67.80
67005;HTU21D;53920;51.094;5.902;2022-12-18T09:15:00;-1.67;67.43
67005;HTU21D;53920;51.094;5.902;2022-12-18T09:17:26;-1.57;67.23
67005;HTU21D;53920;51.094;5.902;2022-12-18T09:19:52;-1.48;67.01
67005;HTU21D;53920;51.094;5.902;2022-12-18T09:22:21;-1.43;66.69
67005;HTU21D;53920;51.094;5.902;2022-12-18T09:24:48;-1.30;66.32
67005;HTU21D;53920;51.094;5.902;2022-12-18T09:27:14;-1.19;66.15
67005;HTU21D;53920;51.094;5.902;2022-12-18T09:29:43;-1.05;65.93
67005;HTU21D;53920;51.094;5.902;2022-12-18T09:32:09;-0.94;65.75
67005;HTU21D;53920;51.094;5.902;2022-12-18T09:34:35;-0.87;65.58
67005;HTU21D;53920;51.094;5.902;2022-12-18T09:37:02;-0.83;65.50
67005;HTU21D;53920;51.094;5.902;2022-12-18T09:39:28;-0.62;65.06
67005;HTU21D;53920;51.094;5.902;2022-12-18T09:41:57;-0.46;64.63
67005;HTU21D;53920;51.094;5.902;2022-12-18T09:44:33;-0.31;64.35
67005;HTU21D;53920;51.094;5.902;2022-12-18T09:50:02;0.02;63.51
67005;HTU21D;53920;51.094;5.902;2022-12-18T09:52:39;0.28;62.99
67005;HTU21D;53920;51.094;5.902;2022-12-18T09:55:25;0.50;62.46
67005;HTU21D;53920;51.094;5.902;2022-12-18T09:58:06;0.73;61.96
67005;HTU21D;53920;51.094;5.902;2022-12-18T10:00:35;0.99;61.02
67005;HTU21D;53920;51.094;5.902;2022-12-18T10:03:14;1.29;60.51
67005;HTU21D;53920;51.094;5.902;2022-12-18T10:06:02;1.54;59.64
67005;HTU21D;53920;51.094;5.902;2022-12-18T10:08:39;1.86;58.93
67005;HTU21D;53920;51.094;5.902;2022-12-18T10:14:43;2.10;57.95
67005;HTU21D;53920;51.094;5.902;2022-12-18T10:20:38;2.19;57.76
67005;HTU21D;53920;51.094;5.902;2022-12-18T10:26:02;2.06;57.98
67005;HTU21D;53920;51.094;5.902;2022-12-18T10:28:31;1.96;58.33
67005;HTU21D;53920;51.094;5.902;2022-12-18T10:30:59;1.77;58.66
67005;HTU21D;53920;51.094;5.902;2022-12-18T10:33:29;1.80;58.79
67005;HTU21D;53920;51.094;5.902;2022-12-18T10:35:56;1.70;58.80
67005;HTU21D;53920;51.094;5.902;2022-12-18T10:38:28;1.64;59.16
67005;HTU21D;53920;51.094;5.902;2022-12-18T10:44:21;2.03;58.50
67005;HTU21D;53920;51.094;5.902;2022-12-18T10:47:03;1.99;58.50
67005;HTU21D;53920;51.094;5.902;2022-12-18T10:49:32;1.86;58.87
67005;HTU21D;53920;51.094;5.902;2022-12-18T10:52:20;1.70;58.74
67005;HTU21D;53920;51.094;5.902;2022-12-18T10:55:13;1.56;59.30
67005;HTU21D;53920;51.094;5.902;2022-12-18T10:57:41;1.49;59.54
67005;HTU21D;53920;51.094;5.902;2022-12-18T11:02:46;1.34;59.70
67005;HTU21D;53920;51.094;5.902;2022-12-18T11:05:29;1.32;60.10
67005;HTU21D;53920;51.094;5.902;2022-12-18T11:07:56;1.37;60.18
67005;HTU21D;53920;51.094;5.902;2022-12-18T11:10:31;1.37;60.47
67005;HTU21D;53920;51.094;5.902;2022-12-18T11:13:16;1.46;60.28
67005;HTU21D;53920;51.094;5.902;2022-12-18T11:15:44;1.42;60.26
67005;HTU21D;53920;51.094;5.902;2022-12-18T11:18:33;1.48;59.89
67005;HTU21D;53920;51.094;5.902;2022-12-18T11:23:32;1.31;60.48
67005;HTU21D;53920;51.094;5.902;2022-12-18T11:26:01;1.23;60.67
67005;HTU21D;53920;51.094;5.902;2022-12-18T11:28:47;1.23;60.73
67005;HTU21D;53920;51.094;5.902;2022-12-18T11:31:28;1.33;60.94
67005;HTU21D;53920;51.094;5.902;2022-12-18T11:34:23;1.34;60.87
67005;HTU21D;53920;51.094;5.902;2022-12-18T11:36:52;1.33;61.05
67005;HTU21D;53920;51.094;5.902;2022-12-18T11:39:31;1.28;61.25
67005;HTU21D;53920;51.094;5.902;2022-12-18T11:42:43;1.26;61.17
67005;HTU21D;53920;51.094;5.902;2022-12-18T11:48:06;1.20;61.63
67005;HTU21D;53920;51.094;5.902;2022-12-18T11:50:51;1.26;61.47
67005;HTU21D;53920;51.094;5.902;2022-12-18T11:53:24;1.26;61.85
67005;HTU21D;53920;51.094;5.902;2022-12-18T12:21:43;1.83;60.74
67005;HTU21D;53920;51.094;5.902;2022-12-18T12:24:38;1.76;61.20
67005;HTU21D;53920;51.094;5.902;2022-12-18T12:30:29;1.98;60.79
67005;HTU21D;53920;51.094;5.902;2022-12-18T12:38:33;1.92;61.01
67005;HTU21D;53920;51.094;5.902;2022-12-18T12:41:05;1.88;60.80
67005;HTU21D;53920;51.094;5.902;2022-12-18T12:43:44;1.79;60.98
67005;HTU21D;53920;51.094;5.902;2022-12-18T12:46:17;1.82;60.96
67005;HTU21D;53920;51.094;5.902;2022-12-18T12:48:56;1.79;60.92
67005;HTU21D;53920;51.094;5.902;2022-12-18T12:51:26;1.80;61.02
67005;HTU21D;53920;51.094;5.902;2022-12-18T12:53:56;1.88;61.09
67005;HTU21D;53920;51.094;5.902;2022-12-18T12:56:32;1.96;60.84
67005;HTU21D;53920;51.094;5.902;2022-12-18T12:59:29;2.05;60.77
67005;HTU21D;53920;51.094;5.902;2022-12-18T13:07:20;2.08;60.28
67005;HTU21D;53920;51.094;5.902;2022-12-18T13:13:12;2.12;60.54
67005;HTU21D;53920;51.094;5.902;2022-12-18T13:15:43;2.01;60.54
67005;HTU21D;53920;51.094;5.902;2022-12-18T13:18:13;1.95;60.63
67005;HTU21D;53920;51.094;5.902;2022-12-18T13:20:43;1.99;60.57
67005;HTU21D;53920;51.094;5.902;2022-12-18T13:23:27;2.01;60.60
67005;HTU21D;53920;51.094;5.902;2022-12-18T13:31:05;1.97;60.80
67005;HTU21D;53920;51.094;5.902;2022-12-18T13:36:14;2.05;60.94
67005;HTU21D;53920;51.094;5.902;2022-12-18T13:38:42;2.05;60.67
67005;HTU21D;53920;51.094;5.902;2022-12-18T13:43:48;2.00;60.64
67005;HTU21D;53920;51.094;5.902;2022-12-18T13:51:42;2.03;60.76
67005;HTU21D;53920;51.094;5.902;2022-12-18T13:56:50;2.01;61.08
67005;HTU21D;53920;51.094;5.902;2022-12-18T13:59:23;1.99;61.28
67005;HTU21D;53920;51.094;5.902;2022-12-18T14:01:59;1.93;61.11
67005;HTU21D;53920;51.094;5.902;2022-12-18T14:04:31;1.98;61.08
67005;HTU21D;53920;51.094;5.902;2022-12-18T14:07:17;1.97;61.24
67005;HTU21D;53920;51.094;5.902;2022-12-18T14:09:47;1.98;61.28
67005;HTU21D;53920;51.094;5.902;2022-12-18T14:12:22;1.96;61.35
67005;HTU21D;53920;51.094;5.902;2022-12-18T14:15:32;1.98;61.41
67005;HTU21D;53920;51.094;5.902;2022-12-18T14:18:23;1.85;61.58
67005;HTU21D;53920;51.094;5.902;2022-12-18T14:20:51;1.78;61.79
67005;HTU21D;53920;51.094;5.902;2022-12-18T14:23:39;1.77;61.67
67005;HTU21D;53920;51.094;5.902;2022-12-18T14:26:25;1.81;61.83
67005;HTU21D;53920;51.094;5.902;2022-12-18T14:28:54;1.81;61.79
67005;HTU21D;53920;51.094;5.902;2022-12-18T14:31:28;1.84;61.60
67005;HTU21D;53920;51.094;5.902;2022-12-18T14:33:55;1.81;61.69
67005;HTU21D;53920;51.094;5.902;2022-12-18T14:36:28;1.77;61.57
67005;HTU21D;53920;51.094;5.902;2022-12-18T14:38:58;1.75;61.77
67005;HTU21D;53920;51.094;5.902;2022-12-18T14:41:25;1.79;61.81
67005;HTU21D;53920;51.094;5.902;2022-12-18T14:43:54;1.76;61.73
67005;HTU21D;53920;51.094;5.902;2022-12-18T14:46:37;1.66;61.86
67005;HTU21D;53920;51.094;5.902;2022-12-18T14:49:30;1.61;61.82
67005;HTU21D;53920;51.094;5.902;2022-12-18T14:51:59;1.53;62.05
67005;HTU21D;53920;51.094;5.902;2022-12-18T14:54:28;1.49;62.24
67005;HTU21D;53920;51.094;5.902;2022-12-18T14:59:47;1.52;62.37
67005;HTU21D;53920;51.094;5.902;2022-12-18T15:04:42;1.60;62.45
67005;HTU21D;53920;51.094;5.902;2022-12-18T15:09:38;1.58;62.46
67005;HTU21D;53920;51.094;5.902;2022-12-18T15:12:05;1.54;62.53
67005;HTU21D;53920;51.094;5.902;2022-12-18T15:14:39;1.54;62.60
67005;HTU21D;53920;51.094;5.902;2022-12-18T15:17:23;1.49;62.66
67005;HTU21D;53920;51.094;5.902;2022-12-18T15:19:53;1.49;62.80
67005;HTU21D;53920;51.094;5.902;2022-12-18T15:22:34;1.43;63.00
67005;HTU21D;53920;51.094;5.902;2022-12-18T15:25:02;1.42;63.12
67005;HTU21D;53920;51.094;5.902;2022-12-18T15:27:36;1.42;63.24
67005;HTU21D;53920;51.094;5.902;2022-12-18T15:30:18;1.40;63.48
67005;HTU21D;53920;51.094;5.902;2022-12-18T15:32:46;1.40;63.50
67005;HTU21D;53920;51.094;5.902;2022-12-18T15:37:42;1.41;63.64
67005;HTU21D;53920;51.094;5.902;2022-12-18T15:40:13;1.45;63.50
67005;HTU21D;53920;51.094;5.902;2022-12-18T15:42:40;1.46;63.37
67005;HTU21D;53920;51.094;5.902;2022-12-18T15:45:26;1.45;63.40
67005;HTU21D;53920;51.094;5.902;2022-12-18T15:47:52;1.46;63.30
67005;HTU21D;53920;51.094;5.902;2022-12-18T15:50:18;1.46;63.37
67005;HTU21D;53920;51.094;5.902;2022-12-18T15:52:49;1.50;63.26
67005;HTU21D;53920;51.094;5.902;2022-12-18T15:55:22;1.46;63.26
67005;HTU21D;53920;51.094;5.902;2022-12-18T15:58:09;1.51;63.17
67005;HTU21D;53920;51.094;5.902;2022-12-18T16:00:39;1.49;63.23
67005;HTU21D;53920;51.094;5.902;2022-12-18T16:03:05;1.49;63.39
67005;HTU21D;53920;51.094;5.902;2022-12-18T16:05:35;1.48;63.30
67005;HTU21D;53920;51.094;5.902;2022-12-18T16:08:02;1.49;63.39
67005;HTU21D;53920;51.094;5.902;2022-12-18T16:10:28;1.51;63.31
67005;HTU21D;53920;51.094;5.902;2022-12-18T16:12:54;1.46;63.44
67005;HTU21D;53920;51.094;5.902;2022-12-18T16:15:23;1.47;63.58
67005;HTU21D;53920;51.094;5.902;2022-12-18T16:17:49;1.46;63.63
67005;HTU21D;53920;51.094;5.902;2022-12-18T16:20:17;1.41;63.64
67005;HTU21D;53920;51.094;5.902;2022-12-18T16:22:45;1.42;63.52
67005;HTU21D;53920;51.094;5.902;2022-12-18T16:25:29;1.36;63.77
67005;HTU21D;53920;51.094;5.902;2022-12-18T16:27:56;1.33;63.89
67005;HTU21D;53920;51.094;5.902;2022-12-18T16:30:29;1.35;63.92
67005;HTU21D;53920;51.094;5.902;2022-12-18T16:32:59;1.34;64.01
67005;HTU21D;53920;51.094;5.902;2022-12-18T16:35:26;1.42;63.90
67005;HTU21D;53920;51.094;5.902;2022-12-18T16:37:52;1.40;63.71
67005;HTU21D;53920;51.094;5.902;2022-12-18T16:40:19;1.40;63.76
67005;HTU21D;53920;51.094;5.902;2022-12-18T16:42:45;1.39;63.78
67005;HTU21D;53920;51.094;5.902;2022-12-18T16:45:16;1.41;63.89
67005;HTU21D;53920;51.094;5.902;2022-12-18T16:47:43;1.34;63.98
67005;HTU21D;53920;51.094;5.902;2022-12-18T16:50:09;1.36;64.05
67005;HTU21D;53920;51.094;5.902;2022-12-18T16:52:36;1.33;64.19
67005;HTU21D;53920;51.094;5.902;2022-12-18T16:55:05;1.36;64.16
67005;HTU21D;53920;51.094;5.902;2022-12-18T16:57:31;1.33;64.17
67005;HTU21D;53920;51.094;5.902;2022-12-18T16:59:57;1.29;64.43
67005;HTU21D;53920;51.094;5.902;2022-12-18T17:02:25;1.28;64.58
67005;HTU21D;53920;51.094;5.902;2022-12-18T17:04:56;1.34;64.50
67005;HTU21D;53920;51.094;5.902;2022-12-18T17:07:23;1.31;64.65
67005;HTU21D;53920;51.094;5.902;2022-12-18T17:09:50;1.31;64.66
67005;HTU21D;53920;51.094;5.902;2022-12-18T17:12:19;1.34;64.65
67005;HTU21D;53920;51.094;5.902;2022-12-18T17:14:45;1.31;64.74
67005;HTU21D;53920;51.094;5.902;2022-12-18T17:17:11;1.31;64.78
67005;HTU21D;53920;51.094;5.902;2022-12-18T17:19:38;1.31;64.74
67005;HTU21D;53920;51.094;5.902;2022-12-18T17:22:04;1.32;64.63
67005;HTU21D;53920;51.094;5.902;2022-12-18T17:24:30;1.27;64.76
67005;HTU21D;53920;51.094;5.902;2022-12-18T17:26:57;1.26;64.82
67005;HTU21D;53920;51.094;5.902;2022-12-18T17:29:22;1.23;64.96
67005;HTU21D;53920;51.094;5.902;2022-12-18T17:31:48;1.19;65.12
67005;HTU21D;53920;51.094;5.902;2022-12-18T17:34:14;1.20;65.13
67005;HTU21D;53920;51.094;5.902;2022-12-18T17:36:40;1.16;65.23
67005;HTU21D;53920;51.094;5.902;2022-12-18T17:39:07;1.18;65.21
67005;HTU21D;53920;51.094;5.902;2022-12-18T17:41:33;1.12;65.39
67005;HTU21D;53920;51.094;5.902;2022-12-18T17:44:02;1.06;65.66
67005;HTU21D;53920;51.094;5.902;2022-12-18T17:46:31;1.08;65.66